sensor_id;sensor_type;location;lat;lon;timestamp;P1;durP1;ratioP1;P2;durP2;ratioP2
4915;SDS011;70796;52.406;13.230;2023-06-22T00:02:25;24.60;;;21.13;;
4915;SDS011;70796;52.406;13.230;2023-06-22T00:04:51;26.30;;;21.80;;
4915;SDS011;70796;52.406;13.230;2023-06-22T00:07:18;23.23;;;20.27;;
4915;SDS011;70796;52.406;13.230;2023-06-22T00:09:46;22.83;;;19.50;;
4915;SDS011;70796;52.406;13.230;2023-06-22T00:12:13;29.33;;;18.97;;
4915;SDS011;70796;52.406;13.230;2023-06-22T00:14:39;22.70;;;19.13;;
4915;SDS011;70796;52.406;13.230;2023-06-22T00:17:06;24.70;;;20.93;;
4915;SDS011;70796;52.406;13.230;2023-06-22T00:19:33;22.33;;;18.63;;
4915;SDS011;70796;52.406;13.230;2023-06-22T00:22:01;23.67;;;19.60;;
4915;SDS011;70796;52.406;13.230;2023-06-22T00:24:29;23.03;;;19.60;;
4915;SDS011;70796;52.406;13.230;2023-06-22T00:26:56;22.43;;;19.13;;
4915;SDS011;70796;52.406;13.230;2023-06-22T00:29:22;23.00;;;17.40;;
4915;SDS011;70796;52.406;13.230;2023-06-22T00:31:51;21.20;;;18.90;;
4915;SDS011;70796;52.406;13.230;2023-06-22T00:34:17;23.63;;;19.03;;
4915;SDS011;70796;52.406;13.230;2023-06-22T00:36:43;21.87;;;19.33;;
4915;SDS011;70796;52.406;13.230;2023-06-22T00:39:10;23.00;;;19.33;;
4915;SDS011;70796;52.406;13.230;2023-06-22T00:41:37;22.90;;;20.07;;
4915;SDS011;70796;52.406;13.230;2023-06-22T00:44:04;27.87;;;21.40;;
4915;SDS011;70796;52.406;13.230;2023-06-22T00:46:30;30.03;;;21.30;;
4915;SDS011;70796;52.406;13.230;2023-06-22T00:48:58;25.40;;;21.00;;
4915;SDS011;70796;52.406;13.230;2023-06-22T00:51:27;24.67;;;19.50;;
4915;SDS011;70796;52.406;13.230;2023-06-22T00:53:53;23.17;;;19.00;;
4915;SDS011;70796;52.406;13.230;2023-06-22T00:56:20;23.80;;;18.57;;
4915;SDS011;70796;52.406;13.230;2023-06-22T00:58:51;20.60;;;18.30;;
4915;SDS011;70796;52.406;13.230;2023-06-22T01:01:19;23.17;;;18.03;;
4915;SDS011;70796;52.406;13.230;2023-06-22T01:03:50;23.03;;;16.70;;
4915;SDS011;70796;52.406;13.230;2023-06-22T01:06:19;18.30;;;16.33;;
4915;SDS011;70796;52.406;13.230;2023-06-22T01:09:05;19.07;;;16.10;;
4915;SDS011;70796;52.406;13.230;2023-06-22T01:11:36;19.80;;;17.20;;
4915;SDS011;70796;52.406;13.230;2023-06-22T01:14:06;19.33;;;17.07;;
4915;SDS011;70796;52.406;13.230;2023-06-22T01:16:40;19.27;;;16.03;;
4915;SDS011;70796;52.406;13.230;2023-06-22T01:19:20;18.37;;;16.47;;
4915;SDS011;70796;52.406;13.230;2023-06-22T01:21:54;19.93;;;16.77;;
4915;SDS011;70796;52.406;13.230;2023-06-22T01:29:19;21.40;;;16.73;;
4915;SDS011;70796;52.406;13.230;2023-06-22T01:31:47;20.60;;;16.73;;
4915;SDS011;70796;52.406;13.230;2023-06-22T01:34:15;18.70;;;16.70;;
4915;SDS011;70796;52.406;13.230;2023-06-22T01:36:42;17.53;;;15.73;;
4915;SDS011;70796;52.406;13.230;2023-06-22T01:39:09;24.57;;;17.60;;
4915;SDS011;70796;52.406;13.230;2023-06-22T01:41:37;23.70;;;18.60;;
4915;SDS011;70796;52.406;13.230;2023-06-22T01:44:06;19.80;;;17.37;;
4915;SDS011;70796;52.406;13.230;2023-06-22T01:46:34;21.33;;;18.03;;
4915;SDS011;70796;52.406;13.230;2023-06-22T01:49:02;21.10;;;17.87;;
4915;SDS011;70796;52.406;13.230;2023-06-22T01:51:29;20.80;;;17.47;;
4915;SDS011;70796;52.406;13.230;2023-06-22T01:53:58;19.07;;;16.33;;
4915;SDS011;70796;52.406;13.230;2023-06-22T01:56:25;18.87;;;16.77;;
4915;SDS011;70796;52.406;13.230;2023-06-22T01:59:03;20.73;;;17.27;;
4915;SDS011;70796;52.406;13.230;2023-06-22T02:01:47;17.90;;;15.63;;
4915;SDS011;70796;52.406;13.230;2023-06-22T02:04:19;21.97;;;17.40;;
4915;SDS011;70796;52.406;13.230;2023-06-22T02:06:47;20.90;;;18.50;;
4915;SDS011;70796;52.406;13.230;2023-06-22T02:09:16;18.80;;;16.17;;
4915;SDS011;70796;52.406;13.230;2023-06-22T02:11:44;18.73;;;16.57;;
4915;SDS011;70796;52.406;13.230;2023-06-22T02:14:13;19.50;;;16.57;;
4915;SDS011;70796;52.406;13.230;2023-06-22T02:16:41;17.50;;;15.50;;
4915;SDS011;70796;52.406;13.230;2023-06-22T02:19:08;20.33;;;17.13;;
4915;SDS011;70796;52.406;13.230;2023-06-22T02:21:35;21.33;;;17.97;;
4915;SDS011;70796;52.406;13.230;2023-06-22T02:24:01;17.53;;;15.57;;
4915;SDS011;70796;52.406;13.230;2023-06-22T02:26:29;18.77;;;16.70;;
4915;SDS011;70796;52.406;13.230;2023-06-22T02:28:55;20.13;;;17.10;;
4915;SDS011;70796;52.406;13.230;2023-06-22T02:31:22;19.33;;;17.23;;
4915;SDS011;70796;52.406;13.230;2023-06-22T02:33:49;20.10;;;16.80;;
4915;SDS011;70796;52.406;13.230;2023-06-22T02:36:18;18.50;;;16.20;;
4915;SDS011;70796;52.406;13.230;2023-06-22T02:38:48;17.67;;;15.87;;
4915;SDS011;70796;52.406;13.230;2023-06-22T02:41:15;18.83;;;16.30;;
4915;SDS011;70796;52.406;13.230;2023-06-22T02:43:45;22.07;;;16.30;;
4915;SDS011;70796;52.406;13.230;2023-06-22T02:46:12;21.17;;;16.23;;
4915;SDS011;70796;52.406;13.230;2023-06-22T02:48:40;18.10;;;16.20;;
4915;SDS011;70796;52.406;13.230;2023-06-22T02:51:07;26.67;;;16.40;;
4915;SDS011;70796;52.406;13.230;2023-06-22T02:53:36;22.40;;;16.10;;
4915;SDS011;70796;52.406;13.230;2023-06-22T02:56:02;19.50;;;15.43;;
4915;SDS011;70796;52.406;13.230;2023-06-22T02:58:35;17.70;;;15.80;;
4915;SDS011;70796;52.406;13.230;2023-06-22T03:01:09;19.27;;;16.50;;
4915;SDS011;70796;52.406;13.230;2023-06-22T03:03:36;19.00;;;15.40;;
4915;SDS011;70796;52.406;13.230;2023-06-22T03:06:03;16.83;;;15.03;;
4915;SDS011;70796;52.406;13.230;2023-06-22T03:08:29;16.80;;;15.10;;
4915;SDS011;70796;52.406;13.230;2023-06-22T03:10:56;17.93;;;14.03;;
4915;SDS011;70796;52.406;13.230;2023-06-22T03:13:23;18.27;;;14.83;;
4915;SDS011;70796;52.406;13.230;2023-06-22T03:15:50;20.90;;;15.60;;
4915;SDS011;70796;52.406;13.230;2023-06-22T03:18:16;17.77;;;15.17;;
4915;SDS011;70796;52.406;13.230;2023-06-22T03:20:43;23.07;;;17.87;;
4915;SDS011;70796;52.406;13.230;2023-06-22T03:23:09;21.70;;;15.33;;
4915;SDS011;70796;52.406;13.230;2023-06-22T03:25:36;17.13;;;15.33;;
4915;SDS011;70796;52.406;13.230;2023-06-22T03:28:04;16.50;;;14.40;;
4915;SDS011;70796;52.406;13.230;2023-06-22T03:30:30;21.60;;;15.83;;
4915;SDS011;70796;52.406;13.230;2023-06-22T03:32:59;18.13;;;15.07;;
4915;SDS011;70796;52.406;13.230;2023-06-22T03:35:25;17.77;;;14.97;;
4915;SDS011;70796;52.406;13.230;2023-06-22T03:37:52;22.30;;;15.23;;
4915;SDS011;70796;52.406;13.230;2023-06-22T03:40:19;19.30;;;15.90;;
4915;SDS011;70796;52.406;13.230;2023-06-22T03:42:46;18.83;;;15.93;;
4915;SDS011;70796;52.406;13.230;2023-06-22T03:45:12;21.37;;;16.80;;
4915;SDS011;70796;52.406;13.230;2023-06-22T03:47:39;24.60;;;18.90;;
4915;SDS011;70796;52.406;13.230;2023-06-22T03:50:06;22.63;;;17.60;;
4915;SDS011;70796;52.406;13.230;2023-06-22T03:52:33;23.40;;;17.70;;
4915;SDS011;70796;52.406;13.230;2023-06-22T03:54:59;18.57;;;16.57;;
4915;SDS011;70796;52.406;13.230;2023-06-22T03:57:25;24.33;;;17.30;;
4915;SDS011;70796;52.406;13.230;2023-06-22T03:59:51;19.20;;;16.43;;
4915;SDS011;70796;52.406;13.230;2023-06-22T04:02:18;22.50;;;15.77;;
4915;SDS011;70796;52.406;13.230;2023-06-22T04:04:44;26.73;;;16.40;;
4915;SDS011;70796;52.406;13.230;2023-06-22T04:07:11;21.53;;;15.33;;
4915;SDS011;70796;52.406;13.230;2023-06-22T04:09:38;16.60;;;14.90;;
4915;SDS011;70796;52.406;13.230;2023-06-22T04:12:04;19.50;;;14.67;;
4915;SDS011;70796;52.406;13.230;2023-06-22T04:14:32;17.03;;;14.50;;
4915;SDS011;70796;52.406;13.230;2023-06-22T04:16:58;14.03;;;12.63;;
4915;SDS011;70796;52.406;13.230;2023-06-22T04:19:25;17.03;;;14.63;;
4915;SDS011;70796;52.406;13.230;2023-06-22T04:21:52;18.80;;;12.83;;
4915;SDS011;70796;52.406;13.230;2023-06-22T04:24:18;17.53;;;12.97;;
4915;SDS011;70796;52.406;13.230;2023-06-22T04:26:45;14.70;;;13.10;;
4915;SDS011;70796;52.406;13.230;2023-06-22T04:29:11;16.20;;;12.20;;
4915;SDS011;70796;52.406;13.230;2023-06-22T04:31:38;19.03;;;12.47;;
4915;SDS011;70796;52.406;13.230;2023-06-22T04:34:05;13.33;;;11.30;;
4915;SDS011;70796;52.406;13.230;2023-06-22T04:36:38;15.70;;;11.90;;
4915;SDS011;70796;52.406;13.230;2023-06-22T04:39:09;13.60;;;11.13;;
4915;SDS011;70796;52.406;13.230;2023-06-22T04:41:36;13.10;;;9.90;;
4915;SDS011;70796;52.406;13.230;2023-06-22T04:44:15;14.20;;;10.97;;
4915;SDS011;70796;52.406;13.230;2023-06-22T04:46:51;11.80;;;10.57;;
4915;SDS011;70796;52.406;13.230;2023-06-22T04:49:26;11.93;;;10.00;;
4915;SDS011;70796;52.406;13.230;2023-06-22T04:51:59;16.10;;;11.50;;
4915;SDS011;70796;52.406;13.230;2023-06-22T04:54:26;12.90;;;9.77;;
4915;SDS011;70796;52.406;13.230;2023-06-22T04:56:52;13.93;;;10.93;;
4915;SDS011;70796;52.406;13.230;2023-06-22T04:59:26;13.33;;;10.63;;
4915;SDS011;70796;52.406;13.230;2023-06-22T05:01:54;11.90;;;10.50;;
4915;SDS011;70796;52.406;13.230;2023-06-22T05:04:21;11.43;;;10.30;;
4915;SDS011;70796;52.406;13.230;2023-06-22T05:06:50;15.30;;;10.30;;
4915;SDS011;70796;52.406;13.230;2023-06-22T05:09:16;12.63;;;10.50;;
4915;SDS011;70796;52.406;13.230;2023-06-22T05:11:43;10.77;;;8.73;;
4915;SDS011;70796;52.406;13.230;2023-06-22T05:14:10;12.20;;;9.60;;
4915;SDS011;70796;52.406;13.230;2023-06-22T05:16:36;12.50;;;10.07;;
4915;SDS011;70796;52.406;13.230;2023-06-22T05:19:03;14.73;;;10.33;;
4915;SDS011;70796;52.406;13.230;2023-06-22T05:21:30;12.30;;;10.80;;
4915;SDS011;70796;52.406;13.230;2023-06-22T05:23:57;11.97;;;9.50;;
4915;SDS011;70796;52.406;13.230;2023-06-22T05:26:32;14.00;;;8.70;;
4915;SDS011;70796;52.406;13.230;2023-06-22T05:28:59;13.23;;;10.10;;
4915;SDS011;70796;52.406;13.230;2023-06-22T05:31:26;15.30;;;10.10;;
4915;SDS011;70796;52.406;13.230;2023-06-22T05:33:53;15.27;;;10.13;;
4915;SDS011;70796;52.406;13.230;2023-06-22T05:36:20;13.80;;;10.33;;
4915;SDS011;70796;52.406;13.230;2023-06-22T05:38:47;10.97;;;9.67;;
4915;SDS011;70796;52.406;13.230;2023-06-22T05:41:14;15.80;;;8.90;;
4915;SDS011;70796;52.406;13.230;2023-06-22T05:43:40;10.40;;;8.13;;
4915;SDS011;70796;52.406;13.230;2023-06-22T05:46:06;11.13;;;7.90;;
4915;SDS011;70796;52.406;13.230;2023-06-22T05:48:33;14.50;;;8.77;;
4915;SDS011;70796;52.406;13.230;2023-06-22T05:50:59;14.73;;;9.00;;
4915;SDS011;70796;52.406;13.230;2023-06-22T05:53:26;11.27;;;9.47;;
4915;SDS011;70796;52.406;13.230;2023-06-22T05:55:52;12.67;;;11.30;;
4915;SDS011;70796;52.406;13.230;2023-06-22T05:58:18;13.20;;;9.63;;
4915;SDS011;70796;52.406;13.230;2023-06-22T06:00:45;12.50;;;9.43;;
4915;SDS011;70796;52.406;13.230;2023-06-22T06:03:12;13.20;;;9.37;;
4915;SDS011;70796;52.406;13.230;2023-06-22T06:05:43;11.40;;;9.43;;
4915;SDS011;70796;52.406;13.230;2023-06-22T06:08:10;17.33;;;9.37;;
4915;SDS011;70796;52.406;13.230;2023-06-22T06:10:37;11.23;;;8.20;;
4915;SDS011;70796;52.406;13.230;2023-06-22T06:13:04;16.77;;;8.50;;
4915;SDS011;70796;52.406;13.230;2023-06-22T06:15:31;9.23;;;7.80;;
4915;SDS011;70796;52.406;13.230;2023-06-22T06:17:58;11.53;;;9.43;;
4915;SDS011;70796;52.406;13.230;2023-06-22T06:20:25;9.57;;;8.00;;
4915;SDS011;70796;52.406;13.230;2023-06-22T06:22:54;10.90;;;8.57;;
4915;SDS011;70796;52.406;13.230;2023-06-22T06:25:22;10.77;;;8.17;;
4915;SDS011;70796;52.406;13.230;2023-06-22T06:27:49;9.60;;;7.40;;
4915;SDS011;70796;52.406;13.230;2023-06-22T06:30:17;10.17;;;7.43;;
4915;SDS011;70796;52.406;13.230;2023-06-22T06:32:43;13.13;;;6.90;;
4915;SDS011;70796;52.406;13.230;2023-06-22T06:35:12;10.07;;;8.30;;
4915;SDS011;70796;52.406;13.230;2023-06-22T06:37:39;8.23;;;6.07;;
4915;SDS011;70796;52.406;13.230;2023-06-22T06:40:06;6.97;;;6.00;;
4915;SDS011;70796;52.406;13.230;2023-06-22T06:42:48;5.97;;;5.37;;
4915;SDS011;70796;52.406;13.230;2023-06-22T06:45:16;8.90;;;6.00;;
4915;SDS011;70796;52.406;13.230;2023-06-22T06:47:43;8.13;;;5.40;;
4915;SDS011;70796;52.406;13.230;2023-06-22T06:50:10;6.87;;;6.10;;
4915;SDS011;70796;52.406;13.230;2023-06-22T06:52:36;8.70;;;5.87;;
4915;SDS011;70796;52.406;13.230;2023-06-22T06:55:04;8.50;;;6.00;;
4915;SDS011;70796;52.406;13.230;2023-06-22T06:57:34;9.93;;;6.33;;
4915;SDS011;70796;52.406;13.230;2023-06-22T07:00:01;9.10;;;5.13;;
4915;SDS011;70796;52.406;13.230;2023-06-22T07:02:28;5.47;;;4.57;;
4915;SDS011;70796;52.406;13.230;2023-06-22T07:04:55;6.60;;;5.10;;
4915;SDS011;70796;52.406;13.230;2023-06-22T07:07:22;7.87;;;4.40;;
4915;SDS011;70796;52.406;13.230;2023-06-22T07:09:49;5.33;;;4.60;;
4915;SDS011;70796;52.406;13.230;2023-06-22T07:12:15;5.63;;;4.60;;
4915;SDS011;70796;52.406;13.230;2023-06-22T07:14:42;5.67;;;4.50;;
4915;SDS011;70796;52.406;13.230;2023-06-22T07:17:08;6.47;;;4.67;;
4915;SDS011;70796;52.406;13.230;2023-06-22T07:19:34;6.90;;;3.57;;
4915;SDS011;70796;52.406;13.230;2023-06-22T07:22:01;5.70;;;4.20;;
4915;SDS011;70796;52.406;13.230;2023-06-22T07:24:28;6.27;;;3.80;;
4915;SDS011;70796;52.406;13.230;2023-06-22T07:26:54;7.90;;;4.07;;
4915;SDS011;70796;52.406;13.230;2023-06-22T07:29:23;9.53;;;3.90;;
4915;SDS011;70796;52.406;13.230;2023-06-22T07:31:51;4.40;;;4.00;;
4915;SDS011;70796;52.406;13.230;2023-06-22T07:34:18;8.57;;;4.13;;
4915;SDS011;70796;52.406;13.230;2023-06-22T07:36:44;5.73;;;4.03;;
4915;SDS011;70796;52.406;13.230;2023-06-22T07:39:11;4.73;;;4.13;;
4915;SDS011;70796;52.406;13.230;2023-06-22T07:41:38;5.17;;;4.07;;
4915;SDS011;70796;52.406;13.230;2023-06-22T07:44:06;8.27;;;3.53;;
4915;SDS011;70796;52.406;13.230;2023-06-22T07:46:32;4.10;;;3.50;;
4915;SDS011;70796;52.406;13.230;2023-06-22T07:48:59;4.43;;;3.50;;
4915;SDS011;70796;52.406;13.230;2023-06-22T07:51:25;4.87;;;3.60;;
4915;SDS011;70796;52.406;13.230;2023-06-22T07:53:52;3.60;;;3.20;;
4915;SDS011;70796;52.406;13.230;2023-06-22T07:56:18;4.57;;;4.17;;
4915;SDS011;70796;52.406;13.230;2023-06-22T07:58:46;3.80;;;3.50;;
4915;SDS011;70796;52.406;13.230;2023-06-22T08:01:15;3.90;;;3.53;;
4915;SDS011;70796;52.406;13.230;2023-06-22T08:03:43;4.37;;;3.27;;
4915;SDS011;70796;52.406;13.230;2023-06-22T08:06:09;7.30;;;3.87;;
4915;SDS011;70796;52.406;13.230;2023-06-22T08:08:36;4.60;;;3.50;;
4915;SDS011;70796;52.406;13.230;2023-06-22T08:11:05;7.93;;;3.90;;
4915;SDS011;70796;52.406;13.230;2023-06-22T08:13:33;5.17;;;4.03;;
4915;SDS011;70796;52.406;13.230;2023-06-22T08:15:59;6.17;;;3.90;;
4915;SDS011;70796;52.406;13.230;2023-06-22T08:18:26;4.20;;;3.80;;
4915;SDS011;70796;52.406;13.230;2023-06-22T08:20:52;4.80;;;4.40;;
4915;SDS011;70796;52.406;13.230;2023-06-22T08:23:19;4.33;;;3.93;;
4915;SDS011;70796;52.406;13.230;2023-06-22T08:25:46;11.07;;;4.07;;
4915;SDS011;70796;52.406;13.230;2023-06-22T08:28:14;4.40;;;3.83;;
4915;SDS011;70796;52.406;13.230;2023-06-22T08:30:41;7.97;;;3.87;;
4915;SDS011;70796;52.406;13.230;2023-06-22T08:33:09;9.40;;;4.40;;
4915;SDS011;70796;52.406;13.230;2023-06-22T08:35:43;3.83;;;3.47;;
4915;SDS011;70796;52.406;13.230;2023-06-22T08:38:09;14.40;;;3.40;;
4915;SDS011;70796;52.406;13.230;2023-06-22T08:40:38;3.70;;;3.20;;
4915;SDS011;70796;52.406;13.230;2023-06-22T08:43:05;4.53;;;3.73;;
4915;SDS011;70796;52.406;13.230;2023-06-22T08:45:31;8.13;;;4.00;;
4915;SDS011;70796;52.406;13.230;2023-06-22T08:47:58;4.30;;;3.90;;
4915;SDS011;70796;52.406;13.230;2023-06-22T08:50:25;5.00;;;3.87;;
4915;SDS011;70796;52.406;13.230;2023-06-22T08:52:51;5.13;;;3.87;;
4915;SDS011;70796;52.406;13.230;2023-06-22T08:55:18;4.20;;;3.80;;
4915;SDS011;70796;52.406;13.230;2023-06-22T08:57:45;3.50;;;3.20;;
4915;SDS011;70796;52.406;13.230;2023-06-22T09:00:12;4.23;;;3.80;;
4915;SDS011;70796;52.406;13.230;2023-06-22T09:02:47;3.93;;;3.23;;
4915;SDS011;70796;52.406;13.230;2023-06-22T09:05:16;4.23;;;3.30;;
4915;SDS011;70796;52.406;13.230;2023-06-22T09:07:42;4.13;;;3.50;;
4915;SDS011;70796;52.406;13.230;2023-06-22T09:10:10;9.40;;;4.03;;
4915;SDS011;70796;52.406;13.230;2023-06-22T09:12:36;3.67;;;3.17;;
4915;SDS011;70796;52.406;13.230;2023-06-22T09:15:04;3.77;;;3.40;;
4915;SDS011;70796;52.406;13.230;2023-06-22T09:17:32;4.93;;;3.60;;
4915;SDS011;70796;52.406;13.230;2023-06-22T09:19:59;8.53;;;3.60;;
4915;SDS011;70796;52.406;13.230;2023-06-22T09:22:26;3.60;;;3.30;;
4915;SDS011;70796;52.406;13.230;2023-06-22T09:24:56;4.40;;;3.20;;
4915;SDS011;70796;52.406;13.230;2023-06-22T09:27:22;4.83;;;3.47;;
4915;SDS011;70796;52.406;13.230;2023-06-22T09:29:49;8.40;;;3.50;;
4915;SDS011;70796;52.406;13.230;2023-06-22T09:32:15;5.33;;;3.00;;
4915;SDS011;70796;52.406;13.230;2023-06-22T09:34:42;6.10;;;3.57;;
4915;SDS011;70796;52.406;13.230;2023-06-22T09:37:10;10.30;;;3.83;;
4915;SDS011;70796;52.406;13.230;2023-06-22T09:39:38;8.50;;;4.10;;
4915;SDS011;70796;52.406;13.230;2023-06-22T09:42:04;7.10;;;3.57;;
4915;SDS011;70796;52.406;13.230;2023-06-22T09:44:32;4.00;;;3.40;;
4915;SDS011;70796;52.406;13.230;2023-06-22T09:47:03;3.80;;;3.37;;
4915;SDS011;70796;52.406;13.230;2023-06-22T09:49:30;3.33;;;3.00;;
4915;SDS011;70796;52.406;13.230;2023-06-22T09:52:13;3.63;;;3.30;;
4915;SDS011;70796;52.406;13.230;2023-06-22T09:54:43;4.77;;;3.33;;
4915;SDS011;70796;52.406;13.230;2023-06-22T09:57:09;5.80;;;3.70;;
4915;SDS011;70796;52.406;13.230;2023-06-22T09:59:36;4.10;;;3.70;;
4915;SDS011;70796;52.406;13.230;2023-06-22T10:02:02;4.67;;;3.10;;
4915;SDS011;70796;52.406;13.230;2023-06-22T10:04:33;3.90;;;3.23;;
4915;SDS011;70796;52.406;13.230;2023-06-22T10:07:02;7.17;;;3.23;;
4915;SDS011;70796;52.406;13.230;2023-06-22T10:09:28;5.57;;;3.67;;
4915;SDS011;70796;52.406;13.230;2023-06-22T10:11:55;3.37;;;2.80;;
4915;SDS011;70796;52.406;13.230;2023-06-22T10:14:23;3.87;;;3.47;;
4915;SDS011;70796;52.406;13.230;2023-06-22T10:16:51;5.10;;;3.70;;
4915;SDS011;70796;52.406;13.230;2023-06-22T10:19:18;6.60;;;4.23;;
4915;SDS011;70796;52.406;13.230;2023-06-22T10:21:48;9.80;;;3.90;;
4915;SDS011;70796;52.406;13.230;2023-06-22T10:24:14;4.40;;;3.50;;
4915;SDS011;70796;52.406;13.230;2023-06-22T10:26:40;3.73;;;3.40;;
4915;SDS011;70796;52.406;13.230;2023-06-22T10:29:09;9.60;;;4.00;;
4915;SDS011;70796;52.406;13.230;2023-06-22T10:31:44;4.33;;;3.13;;
4915;SDS011;70796;52.406;13.230;2023-06-22T10:34:10;4.40;;;3.73;;
4915;SDS011;70796;52.406;13.230;2023-06-22T10:36:41;7.27;;;4.03;;
4915;SDS011;70796;52.406;13.230;2023-06-22T10:39:08;4.07;;;3.63;;
4915;SDS011;70796;52.406;13.230;2023-06-22T10:41:36;4.93;;;3.87;;
4915;SDS011;70796;52.406;13.230;2023-06-22T10:44:03;3.80;;;3.50;;
4915;SDS011;70796;52.406;13.230;2023-06-22T10:46:30;4.30;;;3.90;;
4915;SDS011;70796;52.406;13.230;2023-06-22T10:48:56;3.57;;;3.23;;
4915;SDS011;70796;52.406;13.230;2023-06-22T10:51:24;4.17;;;3.77;;
4915;SDS011;70796;52.406;13.230;2023-06-22T10:53:54;7.33;;;3.13;;
4915;SDS011;70796;52.406;13.230;2023-06-22T10:56:21;4.63;;;3.47;;
4915;SDS011;70796;52.406;13.230;2023-06-22T10:58:48;5.40;;;3.00;;
4915;SDS011;70796;52.406;13.230;2023-06-22T11:01:15;6.60;;;4.10;;
4915;SDS011;70796;52.406;13.230;2023-06-22T11:04:02;4.83;;;4.37;;
4915;SDS011;70796;52.406;13.230;2023-06-22T11:06:32;4.50;;;3.70;;
4915;SDS011;70796;52.406;13.230;2023-06-22T11:08:58;4.53;;;3.53;;
4915;SDS011;70796;52.406;13.230;2023-06-22T11:11:37;3.97;;;3.50;;
4915;SDS011;70796;52.406;13.230;2023-06-22T11:14:03;3.87;;;3.47;;
4915;SDS011;70796;52.406;13.230;2023-06-22T11:16:30;3.93;;;3.40;;
4915;SDS011;70796;52.406;13.230;2023-06-22T11:18:56;5.77;;;3.83;;
4915;SDS011;70796;52.406;13.230;2023-06-22T11:21:23;5.40;;;4.00;;
4915;SDS011;70796;52.406;13.230;2023-06-22T11:23:49;3.80;;;3.50;;
4915;SDS011;70796;52.406;13.230;2023-06-22T11:26:17;4.07;;;3.63;;
4915;SDS011;70796;52.406;13.230;2023-06-22T11:28:43;5.33;;;4.00;;
4915;SDS011;70796;52.406;13.230;2023-06-22T11:31:09;4.17;;;3.50;;
4915;SDS011;70796;52.406;13.230;2023-06-22T11:33:51;4.23;;;3.73;;
4915;SDS011;70796;52.406;13.230;2023-06-22T11:36:18;4.50;;;3.97;;
4915;SDS011;70796;52.406;13.230;2023-06-22T11:38:45;4.47;;;4.07;;
4915;SDS011;70796;52.406;13.230;2023-06-22T11:41:11;5.53;;;3.90;;
4915;SDS011;70796;52.406;13.230;2023-06-22T11:43:37;5.43;;;3.53;;
4915;SDS011;70796;52.406;13.230;2023-06-22T11:46:04;10.83;;;3.80;;
4915;SDS011;70796;52.406;13.230;2023-06-22T11:48:30;7.03;;;4.00;;
4915;SDS011;70796;52.406;13.230;2023-06-22T11:50:57;6.43;;;3.67;;
4915;SDS011;70796;52.406;13.230;2023-06-22T11:53:26;4.40;;;3.27;;
4915;SDS011;70796;52.406;13.230;2023-06-22T11:55:53;5.70;;;3.80;;
4915;SDS011;70796;52.406;13.230;2023-06-22T11:58:20;3.80;;;3.50;;
4915;SDS011;70796;52.406;13.230;2023-06-22T12:00:47;4.63;;;4.10;;
4915;SDS011;70796;52.406;13.230;2023-06-22T12:03:17;4.60;;;4.13;;
4915;SDS011;70796;52.406;13.230;2023-06-22T12:05:44;4.30;;;3.90;;
4915;SDS011;70796;52.406;13.230;2023-06-22T12:08:10;4.33;;;3.93;;
4915;SDS011;70796;52.406;13.230;2023-06-22T12:10:37;3.90;;;3.50;;
4915;SDS011;70796;52.406;13.230;2023-06-22T12:13:04;3.87;;;3.43;;
4915;SDS011;70796;52.406;13.230;2023-06-22T12:15:30;4.40;;;4.00;;
4915;SDS011;70796;52.406;13.230;2023-06-22T12:17:57;6.20;;;3.90;;
4915;SDS011;70796;52.406;13.230;2023-06-22T12:20:23;7.27;;;6.70;;
4915;SDS011;70796;52.406;13.230;2023-06-22T12:22:52;4.73;;;4.33;;
4915;SDS011;70796;52.406;13.230;2023-06-22T12:25:20;6.00;;;3.97;;
4915;SDS011;70796;52.406;13.230;2023-06-22T12:27:46;4.37;;;3.97;;
4915;SDS011;70796;52.406;13.230;2023-06-22T12:30:13;5.63;;;4.00;;
4915;SDS011;70796;52.406;13.230;2023-06-22T12:32:41;5.00;;;3.90;;
4915;SDS011;70796;52.406;13.230;2023-06-22T12:35:07;5.33;;;4.40;;
4915;SDS011;70796;52.406;13.230;2023-06-22T12:37:42;4.60;;;4.20;;
4915;SDS011;70796;52.406;13.230;2023-06-22T12:40:17;5.13;;;4.70;;
4915;SDS011;70796;52.406;13.230;2023-06-22T12:42:44;4.80;;;4.00;;
4915;SDS011;70796;52.406;13.230;2023-06-22T12:45:11;5.70;;;4.30;;
4915;SDS011;70796;52.406;13.230;2023-06-22T12:47:39;4.17;;;3.60;;
4915;SDS011;70796;52.406;13.230;2023-06-22T12:50:05;5.90;;;3.97;;
4915;SDS011;70796;52.406;13.230;2023-06-22T12:52:32;7.20;;;4.57;;
4915;SDS011;70796;52.406;13.230;2023-06-22T12:54:59;6.57;;;4.23;;
4915;SDS011;70796;52.406;13.230;2023-06-22T12:57:25;5.67;;;4.37;;
4915;SDS011;70796;52.406;13.230;2023-06-22T12:59:51;4.63;;;4.00;;
4915;SDS011;70796;52.406;13.230;2023-06-22T13:02:18;7.50;;;4.43;;
4915;SDS011;70796;52.406;13.230;2023-06-22T13:04:45;8.17;;;4.57;;
4915;SDS011;70796;52.406;13.230;2023-06-22T13:07:12;5.10;;;4.60;;
4915;SDS011;70796;52.406;13.230;2023-06-22T13:09:41;4.50;;;4.10;;
4915;SDS011;70796;52.406;13.230;2023-06-22T13:12:08;4.30;;;3.97;;
4915;SDS011;70796;52.406;13.230;2023-06-22T13:14:34;5.73;;;4.10;;
4915;SDS011;70796;52.406;13.230;2023-06-22T13:17:00;5.10;;;4.33;;
4915;SDS011;70796;52.406;13.230;2023-06-22T13:19:27;7.90;;;4.43;;
4915;SDS011;70796;52.406;13.230;2023-06-22T13:21:58;5.17;;;4.20;;
4915;SDS011;70796;52.406;13.230;2023-06-22T13:24:25;5.03;;;4.53;;
4915;SDS011;70796;52.406;13.230;2023-06-22T13:26:52;9.33;;;4.40;;
4915;SDS011;70796;52.406;13.230;2023-06-22T13:29:18;4.77;;;4.37;;
4915;SDS011;70796;52.406;13.230;2023-06-22T13:31:44;5.23;;;4.17;;
4915;SDS011;70796;52.406;13.230;2023-06-22T13:34:11;4.87;;;4.37;;
4915;SDS011;70796;52.406;13.230;2023-06-22T13:36:38;4.93;;;4.47;;
4915;SDS011;70796;52.406;13.230;2023-06-22T13:39:05;15.00;;;4.73;;
4915;SDS011;70796;52.406;13.230;2023-06-22T13:41:32;7.50;;;3.90;;
4915;SDS011;70796;52.406;13.230;2023-06-22T13:43:58;5.17;;;4.63;;
4915;SDS011;70796;52.406;13.230;2023-06-22T13:46:26;6.83;;;5.13;;
4915;SDS011;70796;52.406;13.230;2023-06-22T13:48:54;5.00;;;4.50;;
4915;SDS011;70796;52.406;13.230;2023-06-22T13:51:22;10.07;;;5.53;;
4915;SDS011;70796;52.406;13.230;2023-06-22T13:53:50;5.50;;;4.80;;
4915;SDS011;70796;52.406;13.230;2023-06-22T13:56:21;7.57;;;4.97;;
4915;SDS011;70796;52.406;13.230;2023-06-22T13:58:47;4.23;;;3.90;;
4915;SDS011;70796;52.406;13.230;2023-06-22T14:01:14;4.70;;;4.30;;
4915;SDS011;70796;52.406;13.230;2023-06-22T14:03:43;4.10;;;3.73;;
4915;SDS011;70796;52.406;13.230;2023-06-22T14:06:11;7.63;;;4.23;;
4915;SDS011;70796;52.406;13.230;2023-06-22T14:08:38;5.40;;;4.50;;
4915;SDS011;70796;52.406;13.230;2023-06-22T14:11:07;5.00;;;4.10;;
4915;SDS011;70796;52.406;13.230;2023-06-22T14:13:33;7.60;;;4.23;;
4915;SDS011;70796;52.406;13.230;2023-06-22T14:16:03;4.50;;;4.10;;
4915;SDS011;70796;52.406;13.230;2023-06-22T14:18:30;4.50;;;4.10;;
4915;SDS011;70796;52.406;13.230;2023-06-22T14:20:57;4.93;;;4.43;;
4915;SDS011;70796;52.406;13.230;2023-06-22T14:23:24;5.90;;;4.60;;
4915;SDS011;70796;52.406;13.230;2023-06-22T14:25:50;5.60;;;3.83;;
4915;SDS011;70796;52.406;13.230;2023-06-22T14:28:18;4.63;;;3.97;;
4915;SDS011;70796;52.406;13.230;2023-06-22T14:30:45;4.40;;;4.00;;
4915;SDS011;70796;52.406;13.230;2023-06-22T14:33:12;5.13;;;4.53;;
4915;SDS011;70796;52.406;13.230;2023-06-22T14:35:39;5.20;;;4.70;;
4915;SDS011;70796;52.406;13.230;2023-06-22T14:38:07;6.90;;;4.67;;
4915;SDS011;70796;52.406;13.230;2023-06-22T14:40:35;5.43;;;4.87;;
4915;SDS011;70796;52.406;13.230;2023-06-22T14:43:23;5.57;;;4.87;;
4915;SDS011;70796;52.406;13.230;2023-06-22T14:45:56;5.57;;;5.00;;